Airfield :
LOGIN :

Register | Disclaimer

   EN    FR    IT 

 










Legend :    VFR   Marginal VFR   IFR   Intensive IFR   Very Intensive IFR
Visi :
Ceiling :
>= 8 km
>= 3000ft
5 to 8 km
1000 to 3000 ft
1500m to 5 km
500 to 1000 ft
800 to 1500m
200 to 500 ft
< 800m
< 200 ft
Symbols :   Thunderstorms  Fog  Heavy snow  Heavy precipitations  Wind > 20 kt
SIGMETs :     Misc.  Thunderstorms  Icing  Turbulence  Mountain Waves  Volcanic Ashes







- Airport Elevation : 3 ft
- IATA code : LWR


EHLW - Leuuwarden Air Base

CURRENT METAR :
  • 251729Z AUTO 35011KT 310V030 9999 BKN014/// OVC016/// 15/11 Q1025 GRN RMK R05

EXPIRED METARs :
  • 251725Z AUTO 35011KT 310V010 9999 OVC015/// 15/12 Q1025 WHT RMK R05
  • 251655Z AUTO 35012KT 300V020 9999 BKN016/// BKN019/// 15/11 Q1025 WHT RMK R05
  • 251625Z AUTO 34011KT 300V010 9999 FEW016 16/12 Q1025 BLU RMK R05
  • 251606Z AUTO 34013KT 320V020 9999 FEW017 16/11 Q1025 BLU RMK R05
  • 251600Z AUTO 33012KT 300V020 9999 SCT016 16/11 Q1025 WHT RMK R05
  • 251555Z AUTO 33013KT 310V020 9999 FEW017 16/11 Q1025 BLU RMK R05
  • 251538Z AUTO 34013KT 280V010 9999 FEW017 17/12 Q1025 BLU RMK R05
  • 251532Z AUTO 34014KT 280V360 9999 SCT017 16/11 Q1025 WHT RMK R05
  • 251525Z AUTO 33013KT 300V020 9999 FEW018 16/11 Q1025 BLU RMK R05
  • 251514Z AUTO 32014KT 290V010 9999 SCT018 17/12 Q1025 WHT RMK R05
  • 251455Z AUTO 34012KT 300V010 9999 FEW018 17/12 Q1025 BLU RMK R05

TAF TAF EHLW
Valid from the 25 at 09:00 until the 25 at 21:00 UTC


250815Z 2509/2521 33012KT 9999 BKN015
BECMG 2510/2512 SCT020
No reported NOTAMs for that airfield.



MET'MAP, your aeronautical weather chart ! - Copyright ORBIFLY December 2007 - Disclaimer

ORBIFLY MET'MAP TEAM :

Programming & Development : Alexandra Zaïnal
Concept & Development : Baudouin d'Aumeries
Co-Development & Prog : Marc-Olivier Méhu
Technical & hardware support : Manuel Goepfert

Contact : metmap@orbifly.com




SOURCES & CREDITS :

   NOAA